Aeroporto :
LOGIN :

Iscrizione | Disclaimer

   EN    FR    IT 

 










Sommario :    VFR   VFR Marginale   IFR   IFR Intensivo   IFR Molto Intensivo
Visibilità : 
Base nubi : 
>= 8 km
>= 3000ft
5 / 8 km
1000 / 3000 ft
1500m / 5 km
500 / 1000 ft
800 / 1500m
200 / 500 ft
< 800m
< 200 ft
Simboli :   Temporali  Nebbia  Neve Forte  Precipitazioni Forti  Vento > 20 kt
SIGMETs :   Varie  Temporali  Ghiacco  Turbolenza  Onda orograficha  Ceneri Vulcaniche






- Altitudine del aeroporto : 240 ft
- Codice IATA : VLC


LEVC - Valencia Manises

ULTIMO METAR :
  • 281700Z 13007KT CAVOK 24/19 Q1019 NOSIG

METARs OBSOLETI :
  • 281630Z 13008KT CAVOK 25/19 Q1019 NOSIG
  • 281600Z 13008KT 110V170 CAVOK 25/19 Q1019 NOSIG
  • 281530Z 13009KT 100V160 CAVOK 25/18 Q1019 NOSIG
  • 281500Z 14009KT CAVOK 26/18 Q1019 NOSIG
  • 281430Z 13008KT 100V170 9999 FEW032 26/18 Q1019 NOSIG

TAF TAF LEVC
Valido dal 28 a 12 ore il 29 a 12 ore UTC


281100Z 2812/2912 32004KT 9999 SCT020 TX28/2813Z TN17/2906Z
BECMG 2812/2814 12010KT
BECMG 2819/2821 30004KT



MetMap, La meteo Aeronautica in un colpo d'occhio ! - Copyright ORBIFLY Dicembre 2007 - Disclaimer

ORBIFLY MET'MAP TEAM :

Programmazione e sviluppo : Alexandra Zaïnal
Concezione : Baudouin d'Aumeries
Aiuto per la programmazione : Marc-Olivier Méhu
Supporto tecnico e logistico : Manuel Goepfert
Aiuto per la traduzione : Arnaldo La Scala

Contatto : metmap@orbifly.com




FONTI E CREDITI :

   NOAA